Sainte-Famille, Canada
Current Conditions -  °F | °C
As of 8:41 AM on Thursday 23 Oct 2014 (Local Time) from CYQB Reporting Station
Overcast Overcast  
Wind Chill: 35°   Ceiling: 5700
Heat Index: 43°   Visibility: 30mi
Dew Point: 37°   Wind: 18mph
Humidity: 81%   Direction: 60°ENE
Pressure: 30.16"   Gusts: 26mph
Location:  46.97°N, 70.95°W
Report Text: CYQB 231241Z 06016G23KT 30SM FEW025 OVC057 06/03 A3016 RMK SC2SC6 SLP217
Loading
Personal Weather Stations






























Interactive Weather Map
Tropical Storm Tracking
New forecast layout! Learn more

10-Day Weather Forecast

Advertisements
Track Severe Weather on mobile